createdAt,value
2019-05-22T00:01:10.948Z,24.32
2019-05-22T00:02:30.676Z,25.95
2019-05-22T00:03:42.092Z,25.27
2019-05-22T00:04:55.622Z,22.90
2019-05-22T00:06:01.055Z,25.50
2019-05-22T00:07:08.359Z,24.57
2019-05-22T00:08:14.201Z,39.83
2019-05-22T00:09:22.096Z,94.52
2019-05-22T00:10:28.957Z,26.82
2019-05-22T00:11:35.056Z,31.25
2019-05-22T00:12:46.603Z,26.85
2019-05-22T00:13:50.946Z,32.23
2019-05-22T00:14:56.864Z,26.90
2019-05-22T00:16:03.937Z,28.65
2019-05-22T00:17:10.557Z,36.23
2019-05-22T00:18:16.135Z,38.23
2019-05-22T00:19:23.188Z,40.12
2019-05-22T00:20:29.547Z,39.13
2019-05-22T00:21:36.337Z,32.00
2019-05-22T00:22:43.217Z,29.67
2019-05-22T00:23:50.105Z,30.25
2019-05-22T00:24:56.788Z,28.47
2019-05-22T00:26:33.852Z,27.73
2019-05-22T00:27:39.582Z,29.18
2019-05-22T00:28:46.076Z,29.50
2019-05-22T00:29:53.874Z,29.85
2019-05-22T00:31:00.663Z,30.70
2019-05-22T00:32:05.310Z,30.55
2019-05-22T00:33:11.076Z,31.15
2019-05-22T00:34:17.208Z,30.65
2019-05-22T00:35:23.864Z,32.17
2019-05-22T00:36:29.299Z,32.17
2019-05-22T00:37:35.131Z,31.82
2019-05-22T00:38:42.130Z,31.90
2019-05-22T00:39:48.788Z,32.70
2019-05-22T00:41:02.956Z,33.63
2019-05-22T00:42:10.278Z,41.85
2019-05-22T00:43:18.514Z,47.13
2019-05-22T00:44:25.160Z,34.18
2019-05-22T00:45:31.215Z,33.10
2019-05-22T00:46:37.120Z,32.73
2019-05-22T00:47:42.184Z,31.68
2019-05-22T00:48:48.355Z,31.42
2019-05-22T00:49:55.055Z,30.88
2019-05-22T00:51:19.147Z,28.05
2019-05-22T00:52:46.333Z,27.98
2019-05-22T00:53:59.267Z,27.30
2019-05-22T00:55:17.169Z,27.80
2019-05-22T00:56:58.207Z,26.50
2019-05-22T00:58:16.830Z,27.58
2019-05-22T00:59:33.757Z,28.07
2019-05-22T01:00:43.308Z,27.25
2019-05-22T01:01:53.848Z,26.62
2019-05-22T01:03:00.210Z,25.55
2019-05-22T01:04:06.201Z,26.90
2019-05-22T01:05:11.407Z,25.85
2019-05-22T01:06:16.951Z,25.90
2019-05-22T01:07:30.075Z,27.77
2019-05-22T01:08:38.448Z,24.55
2019-05-22T01:09:44.378Z,25.62
2019-05-22T01:10:53.502Z,24.95
2019-05-22T01:12:00.108Z,25.48
2019-05-22T01:13:05.456Z,23.52
2019-05-22T01:14:10.056Z,24.95
2019-05-22T01:15:21.236Z,24.05
2019-05-22T01:16:27.148Z,24.37
2019-05-22T01:17:36.289Z,24.05
2019-05-22T01:18:42.662Z,23.00
2019-05-22T01:19:51.164Z,25.12
2019-05-22T01:20:59.885Z,23.73
2019-05-22T01:22:06.821Z,22.98
2019-05-22T01:23:16.085Z,21.82
2019-05-22T01:24:21.241Z,21.25
2019-05-22T01:25:27.341Z,19.85
2019-05-22T01:26:33.750Z,19.20
2019-05-22T01:27:38.786Z,19.95
2019-05-22T01:28:44.883Z,18.92
2019-05-22T01:29:51.349Z,17.55
2019-05-22T01:31:02.657Z,17.80
2019-05-22T01:32:23.067Z,18.55
2019-05-22T01:33:34.222Z,20.45
2019-05-22T01:34:39.519Z,20.25
2019-05-22T01:35:52.918Z,23.32
2019-05-22T01:37:01.708Z,22.67
2019-05-22T01:38:07.635Z,24.18
2019-05-22T01:39:35.461Z,24.07
2019-05-22T01:40:48.495Z,23.47
2019-05-22T01:41:56.258Z,24.60
2019-05-22T01:43:02.766Z,24.27
2019-05-22T01:44:09.453Z,24.75
2019-05-22T01:45:18.919Z,25.62
2019-05-22T01:46:25.368Z,26.30
2019-05-22T01:47:40.509Z,27.77
2019-05-22T01:48:45.738Z,27.52
2019-05-22T01:49:54.724Z,26.60
2019-05-22T01:51:00.914Z,28.62
2019-05-22T01:52:07.086Z,25.57
2019-05-22T01:53:15.607Z,24.63
2019-05-22T01:54:22.335Z,23.40
2019-05-22T01:55:27.776Z,23.18
2019-05-22T01:56:34.515Z,23.40
2019-05-22T01:57:40.719Z,22.70
2019-05-22T01:58:46.344Z,23.15
2019-05-22T01:59:52.513Z,22.20
2019-05-22T02:00:58.431Z,21.23
2019-05-22T02:02:04.375Z,22.32
2019-05-22T02:03:11.059Z,22.17
2019-05-22T02:04:15.614Z,19.95
2019-05-22T02:05:23.105Z,19.77
2019-05-22T02:06:28.059Z,19.27
2019-05-22T02:07:34.965Z,18.87
2019-05-22T02:08:44.016Z,18.60
2019-05-22T02:09:49.200Z,17.75
2019-05-22T02:10:56.063Z,17.42
2019-05-22T02:12:08.424Z,16.52
2019-05-22T02:13:15.325Z,16.82
2019-05-22T02:14:22.765Z,16.90
2019-05-22T02:15:27.982Z,15.05
2019-05-22T02:16:33.896Z,15.85
2019-05-22T02:17:39.413Z,15.80
2019-05-22T02:18:46.620Z,14.68
2019-05-22T02:19:52.008Z,14.38
2019-05-22T02:20:58.423Z,13.60
2019-05-22T02:22:05.444Z,14.53
2019-05-22T02:23:11.389Z,14.20
2019-05-22T02:24:18.559Z,13.65
2019-05-22T02:25:24.476Z,13.58
2019-05-22T02:26:29.126Z,13.70
2019-05-22T02:27:34.688Z,12.75
2019-05-22T02:28:40.111Z,13.10
2019-05-22T02:29:48.208Z,12.98
2019-05-22T02:30:54.399Z,13.08
2019-05-22T02:31:59.565Z,13.28
2019-05-22T02:33:06.593Z,12.78
2019-05-22T02:34:12.011Z,12.75
2019-05-22T02:35:17.243Z,11.50
2019-05-22T02:36:23.444Z,12.75
2019-05-22T02:37:29.766Z,11.45
2019-05-22T02:38:35.524Z,11.60
2019-05-22T02:39:41.175Z,11.80
2019-05-22T02:40:47.387Z,11.80
2019-05-22T02:41:59.628Z,12.82
2019-05-22T02:43:06.485Z,12.00
2019-05-22T02:44:11.440Z,11.70
2019-05-22T02:45:17.271Z,12.18
2019-05-22T02:46:22.986Z,13.60
2019-05-22T02:47:29.346Z,12.43
2019-05-22T02:48:34.053Z,12.85
2019-05-22T02:49:39.483Z,12.50
2019-05-22T02:50:45.959Z,12.40
2019-05-22T02:51:52.538Z,12.68
2019-05-22T02:52:58.983Z,12.75
2019-05-22T02:54:06.210Z,12.60
2019-05-22T02:55:11.168Z,11.40
2019-05-22T02:56:16.572Z,11.85
2019-05-22T02:57:21.895Z,12.55
2019-05-22T02:58:28.077Z,11.85
2019-05-22T02:59:32.912Z,11.95
2019-05-22T03:00:51.033Z,12.85
2019-05-22T03:01:56.621Z,11.78
2019-05-22T03:03:02.192Z,13.40
2019-05-22T03:04:08.993Z,13.65
2019-05-22T03:05:15.762Z,13.18
2019-05-22T03:06:20.665Z,14.00
2019-05-22T03:07:26.281Z,13.75
2019-05-22T03:09:04.977Z,13.35
2019-05-22T03:10:13.877Z,15.05
2019-05-22T03:11:19.036Z,13.35
2019-05-22T03:12:24.856Z,13.98
2019-05-22T03:13:59.638Z,14.55
2019-05-22T03:15:09.334Z,12.40
2019-05-22T03:16:15.373Z,13.25
2019-05-22T03:17:28.847Z,11.50
2019-05-22T03:18:34.321Z,11.60
2019-05-22T03:19:43.219Z,10.95
2019-05-22T03:20:48.809Z,10.53
2019-05-22T03:21:54.103Z,10.43
2019-05-22T03:23:33.439Z,10.38
2019-05-22T03:24:39.389Z,10.20
2019-05-22T03:25:44.612Z,9.78
2019-05-22T03:26:50.975Z,10.53
2019-05-22T03:27:57.406Z,10.03
2019-05-22T03:29:02.607Z,11.73
2019-05-22T03:30:12.803Z,11.60
2019-05-22T03:31:18.758Z,10.85
2019-05-22T03:32:24.537Z,11.85
2019-05-22T03:33:30.008Z,11.65
2019-05-22T03:34:35.925Z,101.18
2019-05-22T03:35:51.798Z,12.07
2019-05-22T03:36:56.536Z,19.67
2019-05-22T03:38:04.012Z,20.65
2019-05-22T03:39:09.094Z,20.52
2019-05-22T03:40:16.215Z,14.00
2019-05-22T03:41:21.287Z,13.80
2019-05-22T03:42:27.697Z,12.65
2019-05-22T03:43:32.585Z,16.15
2019-05-22T03:44:37.758Z,12.78
2019-05-22T03:45:42.372Z,13.50
2019-05-22T03:46:48.591Z,17.15
2019-05-22T03:47:54.135Z,30.95
2019-05-22T03:49:01.191Z,17.30
2019-05-22T03:50:07.143Z,13.03
2019-05-22T03:51:13.900Z,16.02
2019-05-22T03:52:18.957Z,16.40
2019-05-22T03:53:24.828Z,13.83
2019-05-22T03:54:30.623Z,14.60
2019-05-22T03:55:36.489Z,17.00
2019-05-22T03:56:42.348Z,14.00
2019-05-22T03:57:47.637Z,12.90
2019-05-22T03:58:52.483Z,11.60
2019-05-22T03:59:58.055Z,12.45
2019-05-22T04:01:04.058Z,12.43
2019-05-22T04:02:10.972Z,11.97
2019-05-22T04:03:16.017Z,13.20
2019-05-22T04:04:47.382Z,13.88
2019-05-22T04:05:53.371Z,12.37
2019-05-22T04:06:58.815Z,13.03
2019-05-22T04:08:06.208Z,13.35
2019-05-22T04:09:31.006Z,12.88
2019-05-22T04:10:43.631Z,12.30
2019-05-22T04:11:50.172Z,11.73
2019-05-22T04:12:55.520Z,11.00
2019-05-22T04:14:01.644Z,11.70
2019-05-22T04:15:08.776Z,11.57
2019-05-22T04:16:15.891Z,11.70
2019-05-22T04:17:21.314Z,11.08
2019-05-22T04:18:27.456Z,10.53
2019-05-22T04:19:47.573Z,10.68
2019-05-22T04:20:40.158Z,10.25
2019-05-22T04:21:45.921Z,11.05
2019-05-22T04:22:55.916Z,10.98
2019-05-22T04:24:00.837Z,10.95
2019-05-22T04:25:07.327Z,10.43
2019-05-22T04:26:13.796Z,10.45
2019-05-22T04:27:19.160Z,10.72
2019-05-22T04:28:24.277Z,10.93
2019-05-22T04:29:32.862Z,10.93
2019-05-22T04:30:37.577Z,10.85
2019-05-22T04:31:51.727Z,11.08
2019-05-22T04:32:56.878Z,11.18
2019-05-22T04:34:02.045Z,11.70
2019-05-22T04:35:11.252Z,12.05
2019-05-22T04:36:16.916Z,12.85
2019-05-22T04:37:23.584Z,11.25
2019-05-22T04:38:29.073Z,11.80
2019-05-22T04:39:35.898Z,13.05
2019-05-22T04:40:53.640Z,13.70
2019-05-22T04:42:00.943Z,14.33
2019-05-22T04:43:07.817Z,14.53
2019-05-22T04:44:12.425Z,14.45
2019-05-22T04:45:19.080Z,13.35
2019-05-22T04:46:24.281Z,12.75
2019-05-22T04:47:31.088Z,13.30
2019-05-22T04:48:37.810Z,11.95
2019-05-22T04:49:43.129Z,11.43
2019-05-22T04:50:50.081Z,11.60
2019-05-22T04:51:56.321Z,11.25
2019-05-22T04:53:01.842Z,11.60
2019-05-22T04:54:07.079Z,12.80
2019-05-22T04:55:13.587Z,11.65
2019-05-22T04:56:18.861Z,11.18
2019-05-22T04:57:23.978Z,12.03
2019-05-22T04:58:31.721Z,12.45
2019-05-22T04:59:37.560Z,11.18
2019-05-22T05:00:43.112Z,10.75
2019-05-22T05:01:48.340Z,10.82
2019-05-22T05:02:54.132Z,10.20
2019-05-22T05:04:00.272Z,11.25
2019-05-22T05:05:07.269Z,10.95
2019-05-22T05:06:12.645Z,10.82
2019-05-22T05:07:17.813Z,10.20
2019-05-22T05:08:22.996Z,10.85
2019-05-22T05:09:28.545Z,11.40
2019-05-22T05:10:33.680Z,11.18
2019-05-22T05:11:39.249Z,10.60
2019-05-22T05:12:44.349Z,10.78
2019-05-22T05:13:49.579Z,11.03
2019-05-22T05:14:54.163Z,10.65
2019-05-22T05:15:59.414Z,11.85
2019-05-22T05:17:05.039Z,11.28
2019-05-22T05:18:10.210Z,11.08
2019-05-22T05:19:15.830Z,10.90
2019-05-22T05:20:22.747Z,11.03
2019-05-22T05:21:28.128Z,10.93
2019-05-22T05:22:43.048Z,11.57
2019-05-22T05:23:48.810Z,10.68
2019-05-22T05:24:55.861Z,9.90
2019-05-22T05:26:00.541Z,11.60
2019-05-22T05:27:05.820Z,9.40
2019-05-22T05:28:12.423Z,9.43
2019-05-22T05:29:27.969Z,8.70
2019-05-22T05:30:32.953Z,13.85
2019-05-22T05:31:38.941Z,11.83
2019-05-22T05:32:44.292Z,8.70
2019-05-22T05:34:13.056Z,9.33
2019-05-22T05:35:20.048Z,9.43
2019-05-22T05:36:25.232Z,10.13
2019-05-22T05:37:30.108Z,10.48
2019-05-22T05:38:37.631Z,10.55
2019-05-22T05:40:31.263Z,11.00
2019-05-22T05:41:36.934Z,10.50
2019-05-22T05:42:41.660Z,11.20
2019-05-22T05:43:48.078Z,11.68
2019-05-22T05:44:52.768Z,11.50
2019-05-22T05:45:58.067Z,11.90
2019-05-22T05:47:03.648Z,11.03
2019-05-22T05:48:11.798Z,11.93
2019-05-22T05:49:17.274Z,11.68
2019-05-22T05:50:38.346Z,10.80
2019-05-22T05:51:33.711Z,10.60
2019-05-22T05:52:39.426Z,10.65
2019-05-22T05:53:59.576Z,10.15
2019-05-22T05:55:05.726Z,10.28
2019-05-22T05:56:14.883Z,9.93
2019-05-22T05:58:13.366Z,9.70
2019-05-22T05:59:23.089Z,9.63
2019-05-22T06:00:31.261Z,10.15
2019-05-22T06:01:45.474Z,10.23
2019-05-22T06:02:56.528Z,10.55
2019-05-22T06:04:00.171Z,10.48
2019-05-22T06:05:05.716Z,10.43
2019-05-22T06:06:36.759Z,11.30
2019-05-22T06:07:42.152Z,10.15
2019-05-22T06:08:48.539Z,9.98
2019-05-22T06:10:40.806Z,10.15
2019-05-22T06:11:49.009Z,9.95
2019-05-22T06:12:54.260Z,10.23
2019-05-22T06:13:59.376Z,15.08
2019-05-22T06:15:05.065Z,25.27
2019-05-22T06:16:47.484Z,19.00
2019-05-22T06:18:36.343Z,25.20
2019-05-22T06:19:45.877Z,50.60
2019-05-22T06:21:03.351Z,9.53
2019-05-22T06:21:58.756Z,8.35
2019-05-22T06:23:44.942Z,8.98
2019-05-22T06:24:58.079Z,8.75
2019-05-22T06:26:04.746Z,8.83
2019-05-22T06:27:23.663Z,8.25
2019-05-22T06:28:31.570Z,9.25
2019-05-22T06:29:43.876Z,8.03
2019-05-22T06:30:48.912Z,9.05
2019-05-22T06:32:30.274Z,9.75
2019-05-22T06:33:36.431Z,8.55
2019-05-22T06:34:41.287Z,9.28
2019-05-22T06:35:49.327Z,8.55
2019-05-22T06:36:56.965Z,8.58
2019-05-22T06:38:13.500Z,8.33
2019-05-22T06:39:19.657Z,7.70
2019-05-22T06:40:25.915Z,7.75
2019-05-22T06:41:35.013Z,7.83
2019-05-22T06:42:44.292Z,7.33
2019-05-22T06:44:39.630Z,7.60
2019-05-22T06:45:44.803Z,7.50
2019-05-22T06:46:49.742Z,7.85
2019-05-22T06:47:54.910Z,8.30
2019-05-22T06:49:03.847Z,9.15
2019-05-22T06:50:10.208Z,13.83
2019-05-22T06:51:19.504Z,10.72
2019-05-22T06:52:22.560Z,10.53
2019-05-22T06:53:27.274Z,9.40
2019-05-22T06:54:32.507Z,10.45
2019-05-22T06:55:37.292Z,9.18
2019-05-22T06:56:42.394Z,8.43
2019-05-22T06:57:47.090Z,9.38
2019-05-22T06:58:52.240Z,11.78
2019-05-22T07:00:12.149Z,10.88
2019-05-22T07:01:06.142Z,10.50
2019-05-22T07:02:12.992Z,11.18
2019-05-22T07:03:19.276Z,10.58
2019-05-22T07:04:23.864Z,11.57
2019-05-22T07:05:29.577Z,10.93
2019-05-22T07:06:34.114Z,11.95
2019-05-22T07:07:39.323Z,11.48
2019-05-22T07:08:44.438Z,12.20
2019-05-22T07:09:50.162Z,11.35
2019-05-22T07:10:55.083Z,11.38
2019-05-22T07:12:01.133Z,10.70
2019-05-22T07:13:08.482Z,9.50
2019-05-22T07:14:14.542Z,9.53
2019-05-22T07:15:34.081Z,9.18
2019-05-22T07:16:41.123Z,8.63
2019-05-22T07:17:47.272Z,9.23
2019-05-22T07:18:53.431Z,7.35
2019-05-22T07:19:58.510Z,7.40
2019-05-22T07:21:03.809Z,7.67
2019-05-22T07:22:09.286Z,7.80
2019-05-22T07:23:17.310Z,7.45
2019-05-22T07:24:22.602Z,7.80
2019-05-22T07:25:29.560Z,7.70
2019-05-22T07:26:35.829Z,7.47
2019-05-22T07:27:41.283Z,6.85
2019-05-22T07:28:47.283Z,6.78
2019-05-22T07:29:52.757Z,6.17
2019-05-22T07:30:57.987Z,6.90
2019-05-22T07:32:03.142Z,6.97
2019-05-22T07:33:08.085Z,7.00
2019-05-22T07:34:13.383Z,6.00
2019-05-22T07:35:17.977Z,6.55
2019-05-22T07:36:24.698Z,6.40
2019-05-22T07:37:30.127Z,6.62
2019-05-22T07:38:35.680Z,8.08
2019-05-22T07:39:40.405Z,6.95
2019-05-22T07:40:49.869Z,7.65
2019-05-22T07:41:52.375Z,7.03
2019-05-22T07:42:58.787Z,7.10
2019-05-22T07:44:03.674Z,6.50
2019-05-22T07:45:09.435Z,7.50
2019-05-22T07:46:14.339Z,6.05
2019-05-22T07:47:23.085Z,6.05
2019-05-22T07:48:30.115Z,6.70
2019-05-22T07:49:35.909Z,6.03
2019-05-22T07:50:47.940Z,6.55
2019-05-22T07:51:58.841Z,6.45
2019-05-22T07:52:58.588Z,6.67
2019-05-22T07:54:03.674Z,6.87
2019-05-22T07:55:09.106Z,6.15
2019-05-22T07:56:16.108Z,6.95
2019-05-22T07:57:23.781Z,6.83
2019-05-22T07:58:31.684Z,6.50
2019-05-22T07:59:36.534Z,5.95
2019-05-22T08:01:00.330Z,14.85
2019-05-22T08:02:06.628Z,6.37
2019-05-22T08:03:12.791Z,6.37
2019-05-22T08:04:19.084Z,6.42
2019-05-22T08:05:25.944Z,5.65
2019-05-22T08:06:30.503Z,5.70
2019-05-22T08:07:37.249Z,6.15
2019-05-22T08:08:43.484Z,6.35
2019-05-22T08:09:49.950Z,7.45
2019-05-22T08:10:56.695Z,5.83
2019-05-22T08:12:02.298Z,10.28
2019-05-22T08:13:08.003Z,6.15
2019-05-22T08:14:14.397Z,10.45
2019-05-22T08:15:19.721Z,14.63
2019-05-22T08:16:25.803Z,6.50
2019-05-22T08:17:31.446Z,15.38
2019-05-22T08:18:40.787Z,9.50
2019-05-22T08:19:45.744Z,13.90
2019-05-22T08:20:51.124Z,7.17
2019-05-22T08:22:06.891Z,6.40
2019-05-22T08:23:03.622Z,6.55
2019-05-22T08:24:09.299Z,5.65
2019-05-22T08:25:14.636Z,6.78
2019-05-22T08:26:21.202Z,6.30
2019-05-22T08:27:26.484Z,5.87
2019-05-22T08:28:32.926Z,6.05
2019-05-22T08:29:39.641Z,6.25
2019-05-22T08:30:45.495Z,6.75
2019-05-22T08:31:51.351Z,5.95
2019-05-22T08:32:58.373Z,5.70
2019-05-22T08:34:06.903Z,6.78
2019-05-22T08:35:12.427Z,5.75
2019-05-22T08:36:17.640Z,5.60
2019-05-22T08:37:27.725Z,5.70
2019-05-22T08:38:34.187Z,5.60
2019-05-22T08:39:39.783Z,5.58
2019-05-22T08:40:47.472Z,5.58
2019-05-22T08:41:52.648Z,6.05
2019-05-22T08:42:58.466Z,5.90
2019-05-22T08:44:16.073Z,5.47
2019-05-22T08:45:13.532Z,7.53
2019-05-22T08:46:18.697Z,7.50
2019-05-22T08:47:24.532Z,7.75
2019-05-22T08:48:30.395Z,10.38
2019-05-22T08:49:36.143Z,21.60
2019-05-22T08:50:43.946Z,8.50
2019-05-22T08:51:50.343Z,8.90
2019-05-22T08:52:55.180Z,14.13
2019-05-22T08:54:00.464Z,5.60
2019-05-22T08:55:07.513Z,6.20
2019-05-22T08:56:13.591Z,7.60
2019-05-22T08:57:20.921Z,6.12
2019-05-22T08:58:27.611Z,6.08
2019-05-22T08:59:32.277Z,5.70
2019-05-22T09:00:37.595Z,5.87
2019-05-22T09:01:42.707Z,5.90
2019-05-22T09:02:47.920Z,5.90
2019-05-22T09:03:52.800Z,5.80
2019-05-22T09:04:58.007Z,5.40
2019-05-22T09:06:02.625Z,5.22
2019-05-22T09:07:08.175Z,6.17
2019-05-22T09:08:12.928Z,5.50
2019-05-22T09:09:18.313Z,5.65
2019-05-22T09:10:26.224Z,6.10
2019-05-22T09:11:30.989Z,6.00
2019-05-22T09:12:35.610Z,6.15
2019-05-22T09:13:41.128Z,6.15
2019-05-22T09:14:46.040Z,6.33
2019-05-22T09:15:51.586Z,6.60
2019-05-22T09:16:56.261Z,7.12
2019-05-22T09:18:01.587Z,6.00
2019-05-22T09:19:06.431Z,5.83
2019-05-22T09:20:12.530Z,6.78
2019-05-22T09:21:17.336Z,6.20
2019-05-22T09:22:39.143Z,6.10
2019-05-22T09:23:29.202Z,6.20
2019-05-22T09:24:34.682Z,6.45
2019-05-22T09:25:39.996Z,6.40
2019-05-22T09:26:45.207Z,6.30
2019-05-22T09:27:49.823Z,6.42
2019-05-22T09:28:55.000Z,6.40
2019-05-22T09:29:59.534Z,5.72
2019-05-22T09:31:05.701Z,6.50
2019-05-22T09:32:10.547Z,6.55
2019-05-22T09:33:16.583Z,6.87
2019-05-22T09:34:21.318Z,7.28
2019-05-22T09:35:26.705Z,7.28
2019-05-22T09:36:31.781Z,6.45
2019-05-22T09:37:37.002Z,6.28
2019-05-22T09:38:43.149Z,6.40
2019-05-22T09:39:59.784Z,6.20
2019-05-22T09:41:06.135Z,7.12
2019-05-22T09:42:11.524Z,7.35
2019-05-22T09:43:16.057Z,6.30
2019-05-22T09:44:21.776Z,7.70
2019-05-22T09:45:26.424Z,7.83
2019-05-22T09:46:31.967Z,7.25
2019-05-22T09:47:38.471Z,7.50
2019-05-22T09:48:44.259Z,7.50
2019-05-22T09:49:50.018Z,6.85
2019-05-22T09:50:55.187Z,7.67
2019-05-22T09:52:00.250Z,7.17
2019-05-22T09:53:08.428Z,7.20
2019-05-22T09:54:14.462Z,7.95
2019-05-22T09:55:20.271Z,6.22
2019-05-22T09:56:25.241Z,6.97
2019-05-22T09:57:30.611Z,6.95
2019-05-22T09:58:35.384Z,14.03
2019-05-22T09:59:40.606Z,9.28
2019-05-22T10:00:46.913Z,6.70
2019-05-22T10:01:52.174Z,6.35
2019-05-22T10:02:56.746Z,6.35
2019-05-22T10:04:02.809Z,7.15
2019-05-22T10:05:08.435Z,7.03
2019-05-22T10:06:21.800Z,25.45
2019-05-22T10:07:27.149Z,9.55
2019-05-22T10:08:32.345Z,7.37
2019-05-22T10:09:37.236Z,14.83
2019-05-22T10:10:42.485Z,18.73
2019-05-22T10:11:47.675Z,5.90
2019-05-22T10:12:52.808Z,6.20
2019-05-22T10:13:57.399Z,6.05
2019-05-22T10:15:04.061Z,6.55
2019-05-22T10:16:09.425Z,6.40
2019-05-22T10:17:15.037Z,6.10
2019-05-22T10:18:20.826Z,6.72
2019-05-22T10:19:26.307Z,6.40
2019-05-22T10:20:31.826Z,6.37
2019-05-22T10:21:37.449Z,6.75
2019-05-22T10:22:43.081Z,6.75
2019-05-22T10:23:48.337Z,6.95
2019-05-22T10:24:52.989Z,6.78
2019-05-22T10:25:58.333Z,6.00
2019-05-22T10:27:03.311Z,7.33
2019-05-22T10:28:08.683Z,6.20
2019-05-22T10:29:13.763Z,7.08
2019-05-22T10:30:21.959Z,6.70
2019-05-22T10:31:27.016Z,6.47
2019-05-22T10:32:32.794Z,6.30
2019-05-22T10:33:39.083Z,6.28
2019-05-22T10:34:44.229Z,5.35
2019-05-22T10:35:50.000Z,6.03
2019-05-22T10:36:55.259Z,5.37
2019-05-22T10:37:59.919Z,6.42
2019-05-22T10:39:06.500Z,6.50
2019-05-22T10:40:11.836Z,5.65
2019-05-22T10:41:18.577Z,5.85
2019-05-22T10:42:23.456Z,5.62
2019-05-22T10:43:29.022Z,5.58
2019-05-22T10:44:33.586Z,6.20
2019-05-22T10:45:39.333Z,5.85
2019-05-22T10:46:44.987Z,5.62
2019-05-22T10:47:50.753Z,5.40
2019-05-22T10:48:55.603Z,5.53
2019-05-22T10:50:01.000Z,6.92
2019-05-22T10:51:05.668Z,20.27
2019-05-22T10:52:10.970Z,9.70
2019-05-22T10:53:32.523Z,14.70
2019-05-22T10:54:23.980Z,6.65
2019-05-22T10:55:29.653Z,8.93
2019-05-22T10:56:34.944Z,7.30
2019-05-22T10:57:40.998Z,15.43
2019-05-22T10:58:46.668Z,7.25
2019-05-22T10:59:51.317Z,6.30
2019-05-22T11:00:57.147Z,6.22
2019-05-22T11:02:01.847Z,7.17
2019-05-22T11:03:07.381Z,6.90
2019-05-22T11:04:12.890Z,6.80
2019-05-22T11:05:20.938Z,6.75
2019-05-22T11:06:25.971Z,7.65
2019-05-22T11:07:31.367Z,6.92
2019-05-22T11:08:36.265Z,6.95
2019-05-22T11:09:42.516Z,7.15
2019-05-22T11:10:48.434Z,6.70
2019-05-22T11:11:54.581Z,6.40
2019-05-22T11:12:59.586Z,7.03
2019-05-22T11:14:09.315Z,7.10
2019-05-22T11:15:12.939Z,7.40
2019-05-22T11:16:18.669Z,8.30
2019-05-22T11:17:23.375Z,8.00
2019-05-22T11:18:29.565Z,7.58
2019-05-22T11:19:34.320Z,7.87
2019-05-22T11:20:40.062Z,6.58
2019-05-22T11:21:45.117Z,7.67
2019-05-22T11:22:50.876Z,7.60
2019-05-22T11:23:55.500Z,7.00
2019-05-22T11:25:00.615Z,6.85
2019-05-22T11:26:05.469Z,7.58
2019-05-22T11:27:10.701Z,7.37
2019-05-22T11:28:15.513Z,7.10
2019-05-22T11:29:20.984Z,7.50
2019-05-22T11:30:26.408Z,7.33
2019-05-22T11:31:32.089Z,7.20
2019-05-22T11:32:36.771Z,7.53
2019-05-22T11:33:42.236Z,8.90
2019-05-22T11:34:47.170Z,8.38
2019-05-22T11:35:53.329Z,8.88
2019-05-22T11:36:58.073Z,8.40
2019-05-22T11:38:03.960Z,8.70
2019-05-22T11:39:13.823Z,10.15
2019-05-22T11:40:20.543Z,8.95
2019-05-22T11:41:27.081Z,12.18
2019-05-22T11:42:32.543Z,8.63
2019-05-22T11:43:37.131Z,8.38
2019-05-22T11:44:42.976Z,8.65
2019-05-22T11:45:47.646Z,9.05
2019-05-22T11:46:53.320Z,9.40
2019-05-22T11:47:58.041Z,16.30
2019-05-22T11:49:03.521Z,10.93
2019-05-22T11:50:09.485Z,11.45
2019-05-22T11:51:15.061Z,10.28
2019-05-22T11:52:20.590Z,10.00
2019-05-22T11:53:26.012Z,9.33
2019-05-22T11:54:30.590Z,9.85
2019-05-22T11:55:44.847Z,10.45
2019-05-22T11:56:42.805Z,10.82
2019-05-22T11:57:48.440Z,10.53
2019-05-22T11:58:53.303Z,10.10
2019-05-22T11:59:58.732Z,10.15
2019-05-22T12:01:04.936Z,10.23
2019-05-22T12:02:12.175Z,9.90
2019-05-22T12:03:18.628Z,11.35
2019-05-22T12:04:25.254Z,11.22
2019-05-22T12:05:32.192Z,11.15
2019-05-22T12:06:38.033Z,11.53
2019-05-22T12:07:43.473Z,11.25
2019-05-22T12:08:49.999Z,11.30
2019-05-22T12:09:54.839Z,11.22
2019-05-22T12:11:02.426Z,10.98
2019-05-22T12:12:08.932Z,11.55
2019-05-22T12:13:14.591Z,11.20
2019-05-22T12:14:19.910Z,12.25
2019-05-22T12:15:27.624Z,11.97
2019-05-22T12:16:32.547Z,13.05
2019-05-22T12:17:39.719Z,11.57
2019-05-22T12:18:44.853Z,12.45
2019-05-22T12:19:50.442Z,13.18
2019-05-22T12:20:55.321Z,13.08
2019-05-22T12:22:00.535Z,12.63
2019-05-22T12:23:05.355Z,13.13
2019-05-22T12:24:26.274Z,13.53
2019-05-22T12:25:18.428Z,13.55
2019-05-22T12:26:23.711Z,12.95
2019-05-22T12:27:28.469Z,13.40
2019-05-22T12:28:33.836Z,15.45
2019-05-22T12:29:39.024Z,13.55
2019-05-22T12:30:46.174Z,14.58
2019-05-22T12:31:51.022Z,13.93
2019-05-22T12:32:57.328Z,14.80
2019-05-22T12:34:02.179Z,14.25
2019-05-22T12:35:14.808Z,14.33
2019-05-22T12:36:20.530Z,13.88
2019-05-22T12:37:26.053Z,15.18
2019-05-22T12:38:31.891Z,16.15
2019-05-22T12:39:39.477Z,16.10
2019-05-22T12:40:46.598Z,16.85
2019-05-22T12:41:53.116Z,17.57
2019-05-22T12:42:58.562Z,16.80
2019-05-22T12:44:05.080Z,17.35
2019-05-22T12:45:11.094Z,17.60
2019-05-22T12:46:17.201Z,17.00
2019-05-22T12:47:23.601Z,18.48
2019-05-22T12:48:28.879Z,16.82
2019-05-22T12:49:33.711Z,17.17
2019-05-22T12:50:39.206Z,17.37
2019-05-22T12:51:44.303Z,16.75
2019-05-22T12:52:51.187Z,18.35
2019-05-22T12:53:56.262Z,18.65
2019-05-22T12:55:02.057Z,18.27
2019-05-22T12:56:07.195Z,17.60
2019-05-22T12:57:13.234Z,17.15
2019-05-22T12:58:19.257Z,17.23
2019-05-22T12:59:25.817Z,17.95
2019-05-22T13:00:31.393Z,19.00
2019-05-22T13:01:37.011Z,17.95
2019-05-22T13:02:43.213Z,18.85
2019-05-22T13:03:49.724Z,28.67
2019-05-22T13:04:54.696Z,20.23
2019-05-22T13:06:00.218Z,23.83
2019-05-22T13:07:05.574Z,28.80
2019-05-22T13:08:13.065Z,17.27
2019-05-22T13:09:18.096Z,16.73
2019-05-22T13:10:24.722Z,16.25
2019-05-22T13:11:29.949Z,17.60
2019-05-22T13:12:35.469Z,19.05
2019-05-22T13:13:40.515Z,17.40
2019-05-22T13:14:46.408Z,16.70
2019-05-22T13:15:52.039Z,16.90
2019-05-22T13:16:58.289Z,18.07
2019-05-22T13:18:03.364Z,16.90
2019-05-22T13:19:08.824Z,17.42
2019-05-22T13:20:15.477Z,16.25
2019-05-22T13:21:22.986Z,17.75
2019-05-22T13:22:30.017Z,15.83
2019-05-22T13:23:39.783Z,16.15
2019-05-22T13:24:44.781Z,17.23
2019-05-22T13:25:50.017Z,16.20
2019-05-22T13:26:56.369Z,16.97
2019-05-22T13:28:03.105Z,21.80
2019-05-22T13:29:07.963Z,17.62
2019-05-22T13:30:15.982Z,17.70
2019-05-22T13:31:21.624Z,17.85
2019-05-22T13:32:29.566Z,25.15
2019-05-22T13:33:35.707Z,22.65
2019-05-22T13:34:41.996Z,25.17
2019-05-22T13:35:47.058Z,27.10
2019-05-22T13:36:56.544Z,18.15
2019-05-22T13:38:00.405Z,57.38
2019-05-22T13:39:09.517Z,20.50
2019-05-22T13:40:27.031Z,16.48
2019-05-22T13:41:21.760Z,16.70
2019-05-22T13:42:26.733Z,17.07
2019-05-22T13:43:33.414Z,17.00
2019-05-22T13:44:38.446Z,15.68
2019-05-22T13:45:44.052Z,16.40
2019-05-22T13:46:49.375Z,16.62
2019-05-22T13:47:54.553Z,16.48
2019-05-22T13:48:59.173Z,16.82
2019-05-22T13:50:07.507Z,17.65
2019-05-22T13:51:13.020Z,18.95
2019-05-22T13:52:18.266Z,16.85
2019-05-22T13:53:22.812Z,16.05
2019-05-22T13:54:28.587Z,16.42
2019-05-22T13:55:33.723Z,16.75
2019-05-22T13:56:40.715Z,17.90
2019-05-22T13:57:45.470Z,18.07
2019-05-22T13:58:50.732Z,17.10
2019-05-22T13:59:57.111Z,17.10
2019-05-22T14:01:03.172Z,16.57
2019-05-22T14:02:08.807Z,17.48
2019-05-22T14:03:15.146Z,16.05
2019-05-22T14:04:19.727Z,16.77
2019-05-22T14:05:26.543Z,16.50
2019-05-22T14:06:31.520Z,15.85
2019-05-22T14:07:36.885Z,16.95
2019-05-22T14:08:41.743Z,15.55
2019-05-22T14:09:47.234Z,15.83
2019-05-22T14:10:53.738Z,15.65
2019-05-22T14:11:59.520Z,16.07
2019-05-22T14:13:04.897Z,15.90
2019-05-22T14:14:10.651Z,15.32
2019-05-22T14:15:16.247Z,16.32
2019-05-22T14:16:22.026Z,15.70
2019-05-22T14:17:26.790Z,16.75
2019-05-22T14:18:32.311Z,16.80
2019-05-22T14:19:38.426Z,16.42
2019-05-22T14:20:43.832Z,16.25
2019-05-22T14:21:51.348Z,16.10
2019-05-22T14:22:56.743Z,15.95
2019-05-22T14:24:01.452Z,15.40
2019-05-22T14:25:07.312Z,15.60
2019-05-22T14:26:12.260Z,15.68
2019-05-22T14:27:17.458Z,16.57
2019-05-22T14:28:24.024Z,15.75
2019-05-22T14:29:29.233Z,16.85
2019-05-22T14:30:34.236Z,17.23
2019-05-22T14:31:39.628Z,16.73
2019-05-22T14:32:44.443Z,17.48
2019-05-22T14:33:49.951Z,15.95
2019-05-22T14:34:55.642Z,16.55
2019-05-22T14:36:01.542Z,16.70
2019-05-22T14:37:06.982Z,16.40